sensor_id;sensor_type;location;lat;lon;timestamp;P1;durP1;ratioP1;P2;durP2;ratioP2
5587;SDS011;2816;49.778;9.986;2022-07-29T00:00:20;6.07;;;3.27;;
5587;SDS011;2816;49.778;9.986;2022-07-29T00:02:47;4.13;;;2.90;;
5587;SDS011;2816;49.778;9.986;2022-07-29T00:05:14;10.27;;;3.10;;
5587;SDS011;2816;49.778;9.986;2022-07-29T00:07:43;7.53;;;3.13;;
5587;SDS011;2816;49.778;9.986;2022-07-29T00:10:10;5.47;;;3.00;;
5587;SDS011;2816;49.778;9.986;2022-07-29T00:12:37;6.00;;;2.80;;
5587;SDS011;2816;49.778;9.986;2022-07-29T00:15:04;7.17;;;3.10;;
5587;SDS011;2816;49.778;9.986;2022-07-29T00:17:32;10.97;;;3.00;;
5587;SDS011;2816;49.778;9.986;2022-07-29T00:19:59;10.17;;;3.13;;
5587;SDS011;2816;49.778;9.986;2022-07-29T00:22:26;4.63;;;2.90;;
5587;SDS011;2816;49.778;9.986;2022-07-29T00:24:54;6.83;;;3.47;;
5587;SDS011;2816;49.778;9.986;2022-07-29T00:27:21;6.97;;;2.87;;
5587;SDS011;2816;49.778;9.986;2022-07-29T00:29:48;8.37;;;3.40;;
5587;SDS011;2816;49.778;9.986;2022-07-29T00:32:15;5.40;;;3.00;;
5587;SDS011;2816;49.778;9.986;2022-07-29T00:34:42;7.13;;;3.40;;
5587;SDS011;2816;49.778;9.986;2022-07-29T00:37:27;4.40;;;2.90;;
5587;SDS011;2816;49.778;9.986;2022-07-29T00:39:55;4.80;;;3.23;;
5587;SDS011;2816;49.778;9.986;2022-07-29T00:42:22;9.13;;;3.03;;
5587;SDS011;2816;49.778;9.986;2022-07-29T00:44:49;6.23;;;3.37;;
5587;SDS011;2816;49.778;9.986;2022-07-29T00:47:16;7.20;;;3.70;;
5587;SDS011;2816;49.778;9.986;2022-07-29T00:49:43;8.50;;;4.03;;
5587;SDS011;2816;49.778;9.986;2022-07-29T00:52:11;6.30;;;3.83;;
5587;SDS011;2816;49.778;9.986;2022-07-29T00:54:39;14.70;;;3.90;;
5587;SDS011;2816;49.778;9.986;2022-07-29T00:57:07;5.20;;;3.50;;
5587;SDS011;2816;49.778;9.986;2022-07-29T00:59:34;7.80;;;3.57;;
5587;SDS011;2816;49.778;9.986;2022-07-29T01:02:01;12.87;;;3.20;;
5587;SDS011;2816;49.778;9.986;2022-07-29T01:04:28;7.77;;;3.17;;
5587;SDS011;2816;49.778;9.986;2022-07-29T01:06:56;6.90;;;3.00;;
5587;SDS011;2816;49.778;9.986;2022-07-29T01:09:24;5.53;;;3.30;;
5587;SDS011;2816;49.778;9.986;2022-07-29T01:11:51;7.90;;;3.43;;
5587;SDS011;2816;49.778;9.986;2022-07-29T01:14:21;4.03;;;3.63;;
5587;SDS011;2816;49.778;9.986;2022-07-29T01:16:51;6.37;;;3.60;;
5587;SDS011;2816;49.778;9.986;2022-07-29T01:19:46;9.40;;;3.43;;
5587;SDS011;2816;49.778;9.986;2022-07-29T01:22:27;9.83;;;3.67;;
5587;SDS011;2816;49.778;9.986;2022-07-29T01:25:26;8.90;;;3.60;;
5587;SDS011;2816;49.778;9.986;2022-07-29T01:28:14;9.80;;;3.47;;
5587;SDS011;2816;49.778;9.986;2022-07-29T01:30:59;5.80;;;3.50;;
5587;SDS011;2816;49.778;9.986;2022-07-29T01:33:28;5.03;;;3.70;;
5587;SDS011;2816;49.778;9.986;2022-07-29T01:36:14;5.87;;;3.70;;
5587;SDS011;2816;49.778;9.986;2022-07-29T01:38:50;5.97;;;3.30;;
5587;SDS011;2816;49.778;9.986;2022-07-29T01:41:24;7.90;;;3.60;;
5587;SDS011;2816;49.778;9.986;2022-07-29T01:43:59;9.10;;;3.40;;
5587;SDS011;2816;49.778;9.986;2022-07-29T01:46:31;7.60;;;3.10;;
5587;SDS011;2816;49.778;9.986;2022-07-29T01:49:02;9.17;;;4.07;;
5587;SDS011;2816;49.778;9.986;2022-07-29T01:51:38;7.47;;;3.63;;
5587;SDS011;2816;49.778;9.986;2022-07-29T01:54:10;10.30;;;3.87;;
5587;SDS011;2816;49.778;9.986;2022-07-29T01:56:42;4.50;;;3.80;;
5587;SDS011;2816;49.778;9.986;2022-07-29T01:59:12;7.97;;;3.80;;
5587;SDS011;2816;49.778;9.986;2022-07-29T02:01:41;6.43;;;3.80;;
5587;SDS011;2816;49.778;9.986;2022-07-29T02:04:11;5.10;;;3.60;;
5587;SDS011;2816;49.778;9.986;2022-07-29T02:06:41;12.23;;;3.83;;
5587;SDS011;2816;49.778;9.986;2022-07-29T02:09:10;10.40;;;4.13;;
5587;SDS011;2816;49.778;9.986;2022-07-29T02:11:40;7.70;;;4.43;;
5587;SDS011;2816;49.778;9.986;2022-07-29T02:14:12;8.77;;;3.67;;
5587;SDS011;2816;49.778;9.986;2022-07-29T02:16:40;12.10;;;4.33;;
5587;SDS011;2816;49.778;9.986;2022-07-29T02:19:08;6.37;;;3.90;;
5587;SDS011;2816;49.778;9.986;2022-07-29T02:21:37;8.33;;;3.67;;
5587;SDS011;2816;49.778;9.986;2022-07-29T02:24:06;6.37;;;3.90;;
5587;SDS011;2816;49.778;9.986;2022-07-29T02:26:36;7.30;;;3.97;;
5587;SDS011;2816;49.778;9.986;2022-07-29T02:29:05;8.00;;;3.80;;
5587;SDS011;2816;49.778;9.986;2022-07-29T02:31:35;8.40;;;3.90;;
5587;SDS011;2816;49.778;9.986;2022-07-29T02:34:03;12.03;;;3.87;;
5587;SDS011;2816;49.778;9.986;2022-07-29T02:36:34;5.67;;;3.60;;
5587;SDS011;2816;49.778;9.986;2022-07-29T02:39:02;7.10;;;3.80;;
5587;SDS011;2816;49.778;9.986;2022-07-29T02:41:37;6.30;;;3.93;;
5587;SDS011;2816;49.778;9.986;2022-07-29T02:44:09;9.83;;;4.27;;
5587;SDS011;2816;49.778;9.986;2022-07-29T02:46:42;8.90;;;3.10;;
5587;SDS011;2816;49.778;9.986;2022-07-29T02:49:15;13.43;;;3.60;;
5587;SDS011;2816;49.778;9.986;2022-07-29T02:51:49;14.60;;;4.10;;
5587;SDS011;2816;49.778;9.986;2022-07-29T02:54:22;6.17;;;3.57;;
5587;SDS011;2816;49.778;9.986;2022-07-29T02:56:55;4.70;;;3.50;;
5587;SDS011;2816;49.778;9.986;2022-07-29T02:59:27;7.90;;;3.50;;
5587;SDS011;2816;49.778;9.986;2022-07-29T03:02:00;9.90;;;4.07;;
5587;SDS011;2816;49.778;9.986;2022-07-29T03:04:28;7.90;;;3.40;;
5587;SDS011;2816;49.778;9.986;2022-07-29T03:06:59;8.30;;;3.70;;
5587;SDS011;2816;49.778;9.986;2022-07-29T03:09:27;14.00;;;4.00;;
5587;SDS011;2816;49.778;9.986;2022-07-29T03:11:55;4.70;;;3.40;;
5587;SDS011;2816;49.778;9.986;2022-07-29T03:14:23;5.03;;;3.63;;
5587;SDS011;2816;49.778;9.986;2022-07-29T03:16:51;7.83;;;4.10;;
5587;SDS011;2816;49.778;9.986;2022-07-29T03:19:20;5.00;;;3.17;;
5587;SDS011;2816;49.778;9.986;2022-07-29T03:21:47;9.17;;;3.43;;
5587;SDS011;2816;49.778;9.986;2022-07-29T03:24:24;9.47;;;3.70;;
5587;SDS011;2816;49.778;9.986;2022-07-29T03:26:55;10.87;;;4.50;;
5587;SDS011;2816;49.778;9.986;2022-07-29T03:29:23;10.63;;;4.07;;
5587;SDS011;2816;49.778;9.986;2022-07-29T03:31:51;8.40;;;4.37;;
5587;SDS011;2816;49.778;9.986;2022-07-29T03:34:19;6.17;;;3.70;;
5587;SDS011;2816;49.778;9.986;2022-07-29T03:36:47;8.37;;;3.50;;
5587;SDS011;2816;49.778;9.986;2022-07-29T03:39:15;8.40;;;3.10;;
5587;SDS011;2816;49.778;9.986;2022-07-29T03:41:47;7.93;;;4.10;;
5587;SDS011;2816;49.778;9.986;2022-07-29T03:44:16;7.20;;;3.20;;
5587;SDS011;2816;49.778;9.986;2022-07-29T03:46:45;10.37;;;3.13;;
5587;SDS011;2816;49.778;9.986;2022-07-29T03:49:14;9.27;;;3.50;;
5587;SDS011;2816;49.778;9.986;2022-07-29T03:51:44;8.50;;;3.47;;
5587;SDS011;2816;49.778;9.986;2022-07-29T03:54:11;6.20;;;2.90;;
5587;SDS011;2816;49.778;9.986;2022-07-29T03:56:39;5.37;;;3.07;;
5587;SDS011;2816;49.778;9.986;2022-07-29T03:59:11;13.90;;;3.83;;
5587;SDS011;2816;49.778;9.986;2022-07-29T04:01:38;3.40;;;2.77;;
5587;SDS011;2816;49.778;9.986;2022-07-29T04:04:07;5.20;;;3.10;;
5587;SDS011;2816;49.778;9.986;2022-07-29T04:06:37;5.60;;;3.17;;
5587;SDS011;2816;49.778;9.986;2022-07-29T04:09:07;7.03;;;3.20;;
5587;SDS011;2816;49.778;9.986;2022-07-29T04:11:34;9.87;;;4.17;;
5587;SDS011;2816;49.778;9.986;2022-07-29T04:14:02;4.90;;;3.53;;
5587;SDS011;2816;49.778;9.986;2022-07-29T04:16:29;9.03;;;4.10;;
5587;SDS011;2816;49.778;9.986;2022-07-29T04:18:56;6.30;;;3.13;;
5587;SDS011;2816;49.778;9.986;2022-07-29T04:21:23;10.33;;;3.80;;
5587;SDS011;2816;49.778;9.986;2022-07-29T04:23:50;8.77;;;4.10;;
5587;SDS011;2816;49.778;9.986;2022-07-29T04:26:19;7.47;;;3.30;;
5587;SDS011;2816;49.778;9.986;2022-07-29T04:28:46;8.53;;;3.47;;
5587;SDS011;2816;49.778;9.986;2022-07-29T04:31:13;8.23;;;3.83;;
5587;SDS011;2816;49.778;9.986;2022-07-29T04:33:40;6.13;;;3.60;;
5587;SDS011;2816;49.778;9.986;2022-07-29T04:36:08;9.60;;;3.63;;
5587;SDS011;2816;49.778;9.986;2022-07-29T04:38:36;8.93;;;3.17;;
5587;SDS011;2816;49.778;9.986;2022-07-29T04:41:04;7.30;;;3.20;;
5587;SDS011;2816;49.778;9.986;2022-07-29T04:43:33;8.67;;;4.10;;
5587;SDS011;2816;49.778;9.986;2022-07-29T04:46:00;7.30;;;3.87;;
5587;SDS011;2816;49.778;9.986;2022-07-29T04:48:27;14.17;;;3.80;;
5587;SDS011;2816;49.778;9.986;2022-07-29T04:50:54;8.17;;;4.00;;
5587;SDS011;2816;49.778;9.986;2022-07-29T04:53:21;8.10;;;3.77;;
5587;SDS011;2816;49.778;9.986;2022-07-29T04:55:48;7.93;;;3.50;;
5587;SDS011;2816;49.778;9.986;2022-07-29T04:58:15;12.00;;;3.13;;
5587;SDS011;2816;49.778;9.986;2022-07-29T05:00:43;7.47;;;3.60;;
5587;SDS011;2816;49.778;9.986;2022-07-29T05:03:10;10.00;;;3.73;;
5587;SDS011;2816;49.778;9.986;2022-07-29T05:05:37;8.90;;;3.43;;
5587;SDS011;2816;49.778;9.986;2022-07-29T05:08:04;6.00;;;3.30;;
5587;SDS011;2816;49.778;9.986;2022-07-29T05:10:31;9.37;;;3.53;;
5587;SDS011;2816;49.778;9.986;2022-07-29T05:13:00;9.87;;;4.30;;
5587;SDS011;2816;49.778;9.986;2022-07-29T05:15:27;20.87;;;3.60;;
5587;SDS011;2816;49.778;9.986;2022-07-29T05:17:55;11.90;;;3.40;;
5587;SDS011;2816;49.778;9.986;2022-07-29T05:20:22;20.27;;;3.90;;
5587;SDS011;2816;49.778;9.986;2022-07-29T05:22:53;9.30;;;3.30;;
5587;SDS011;2816;49.778;9.986;2022-07-29T05:25:20;8.03;;;3.67;;
5587;SDS011;2816;49.778;9.986;2022-07-29T05:27:47;24.30;;;3.80;;
5587;SDS011;2816;49.778;9.986;2022-07-29T05:30:14;11.80;;;3.40;;
5587;SDS011;2816;49.778;9.986;2022-07-29T05:32:41;12.43;;;3.90;;
5587;SDS011;2816;49.778;9.986;2022-07-29T05:35:10;8.93;;;3.70;;
5587;SDS011;2816;49.778;9.986;2022-07-29T05:37:37;13.50;;;3.90;;
5587;SDS011;2816;49.778;9.986;2022-07-29T05:40:04;8.53;;;3.57;;
5587;SDS011;2816;49.778;9.986;2022-07-29T05:42:32;12.20;;;4.10;;
5587;SDS011;2816;49.778;9.986;2022-07-29T05:44:59;9.73;;;3.40;;
5587;SDS011;2816;49.778;9.986;2022-07-29T05:47:27;11.20;;;3.13;;
5587;SDS011;2816;49.778;9.986;2022-07-29T05:49:54;5.97;;;3.17;;
5587;SDS011;2816;49.778;9.986;2022-07-29T05:52:22;8.03;;;3.83;;
5587;SDS011;2816;49.778;9.986;2022-07-29T05:54:49;7.70;;;3.40;;
5587;SDS011;2816;49.778;9.986;2022-07-29T05:57:16;14.17;;;3.33;;
5587;SDS011;2816;49.778;9.986;2022-07-29T05:59:44;7.27;;;3.40;;
5587;SDS011;2816;49.778;9.986;2022-07-29T06:02:11;6.80;;;3.10;;
5587;SDS011;2816;49.778;9.986;2022-07-29T06:04:38;8.50;;;3.77;;
5587;SDS011;2816;49.778;9.986;2022-07-29T06:07:05;13.83;;;3.40;;
5587;SDS011;2816;49.778;9.986;2022-07-29T06:09:33;5.37;;;3.73;;
5587;SDS011;2816;49.778;9.986;2022-07-29T06:12:01;8.53;;;3.80;;
5587;SDS011;2816;49.778;9.986;2022-07-29T06:14:28;10.50;;;3.60;;
5587;SDS011;2816;49.778;9.986;2022-07-29T06:16:55;6.10;;;2.60;;
5587;SDS011;2816;49.778;9.986;2022-07-29T06:19:22;11.60;;;3.27;;
5587;SDS011;2816;49.778;9.986;2022-07-29T06:21:49;9.87;;;3.17;;
5587;SDS011;2816;49.778;9.986;2022-07-29T06:24:16;8.93;;;3.80;;
5587;SDS011;2816;49.778;9.986;2022-07-29T06:26:44;7.23;;;3.30;;
5587;SDS011;2816;49.778;9.986;2022-07-29T06:29:11;8.47;;;3.43;;
5587;SDS011;2816;49.778;9.986;2022-07-29T06:31:38;12.00;;;3.33;;
5587;SDS011;2816;49.778;9.986;2022-07-29T06:34:05;13.07;;;2.80;;
5587;SDS011;2816;49.778;9.986;2022-07-29T06:36:34;8.43;;;3.10;;
5587;SDS011;2816;49.778;9.986;2022-07-29T06:39:03;4.57;;;2.87;;
5587;SDS011;2816;49.778;9.986;2022-07-29T06:41:31;7.07;;;2.87;;
5587;SDS011;2816;49.778;9.986;2022-07-29T06:43:59;13.80;;;3.50;;
5587;SDS011;2816;49.778;9.986;2022-07-29T06:46:26;17.40;;;3.60;;
5587;SDS011;2816;49.778;9.986;2022-07-29T06:48:53;10.57;;;3.13;;
5587;SDS011;2816;49.778;9.986;2022-07-29T06:51:21;5.27;;;2.90;;
5587;SDS011;2816;49.778;9.986;2022-07-29T06:53:48;4.37;;;2.80;;
5587;SDS011;2816;49.778;9.986;2022-07-29T06:56:15;9.17;;;2.70;;
5587;SDS011;2816;49.778;9.986;2022-07-29T06:58:42;6.77;;;2.60;;
5587;SDS011;2816;49.778;9.986;2022-07-29T07:01:11;7.97;;;2.60;;
5587;SDS011;2816;49.778;9.986;2022-07-29T07:03:38;7.33;;;2.73;;
5587;SDS011;2816;49.778;9.986;2022-07-29T07:06:05;13.87;;;3.80;;
5587;SDS011;2816;49.778;9.986;2022-07-29T07:08:32;3.10;;;2.53;;
5587;SDS011;2816;49.778;9.986;2022-07-29T07:10:59;5.93;;;2.63;;
5587;SDS011;2816;49.778;9.986;2022-07-29T07:13:25;7.43;;;2.43;;
5587;SDS011;2816;49.778;9.986;2022-07-29T07:15:53;11.80;;;2.90;;
5587;SDS011;2816;49.778;9.986;2022-07-29T07:18:21;5.20;;;2.60;;
5587;SDS011;2816;49.778;9.986;2022-07-29T07:20:48;7.50;;;2.63;;
5587;SDS011;2816;49.778;9.986;2022-07-29T07:23:15;15.03;;;3.60;;
5587;SDS011;2816;49.778;9.986;2022-07-29T07:25:42;9.87;;;2.73;;
5587;SDS011;2816;49.778;9.986;2022-07-29T07:28:10;3.53;;;2.60;;
5587;SDS011;2816;49.778;9.986;2022-07-29T07:30:37;6.23;;;3.10;;
5587;SDS011;2816;49.778;9.986;2022-07-29T07:33:04;4.37;;;2.67;;
5587;SDS011;2816;49.778;9.986;2022-07-29T07:35:32;10.60;;;2.70;;
5587;SDS011;2816;49.778;9.986;2022-07-29T07:37:59;12.07;;;2.90;;
5587;SDS011;2816;49.778;9.986;2022-07-29T07:40:26;7.87;;;2.60;;
5587;SDS011;2816;49.778;9.986;2022-07-29T07:42:53;5.63;;;3.00;;
5587;SDS011;2816;49.778;9.986;2022-07-29T07:45:20;9.60;;;2.77;;
5587;SDS011;2816;49.778;9.986;2022-07-29T07:47:47;3.83;;;2.70;;
5587;SDS011;2816;49.778;9.986;2022-07-29T07:50:14;8.10;;;2.80;;
5587;SDS011;2816;49.778;9.986;2022-07-29T07:52:47;4.63;;;3.03;;
5587;SDS011;2816;49.778;9.986;2022-07-29T07:55:15;4.47;;;2.87;;
5587;SDS011;2816;49.778;9.986;2022-07-29T07:57:42;4.20;;;2.53;;
5587;SDS011;2816;49.778;9.986;2022-07-29T08:00:10;4.37;;;2.50;;
5587;SDS011;2816;49.778;9.986;2022-07-29T08:02:38;4.00;;;2.50;;
5587;SDS011;2816;49.778;9.986;2022-07-29T08:05:07;6.97;;;2.87;;
5587;SDS011;2816;49.778;9.986;2022-07-29T08:07:35;6.60;;;2.60;;
5587;SDS011;2816;49.778;9.986;2022-07-29T08:10:04;6.93;;;3.00;;
5587;SDS011;2816;49.778;9.986;2022-07-29T08:12:32;8.20;;;2.70;;
5587;SDS011;2816;49.778;9.986;2022-07-29T08:14:59;12.30;;;2.90;;
5587;SDS011;2816;49.778;9.986;2022-07-29T08:17:26;11.60;;;3.13;;
5587;SDS011;2816;49.778;9.986;2022-07-29T08:19:53;4.40;;;2.57;;
5587;SDS011;2816;49.778;9.986;2022-07-29T08:22:20;4.40;;;2.90;;
5587;SDS011;2816;49.778;9.986;2022-07-29T08:24:47;10.03;;;2.90;;
5587;SDS011;2816;49.778;9.986;2022-07-29T08:27:20;7.60;;;2.83;;
5587;SDS011;2816;49.778;9.986;2022-07-29T08:29:47;3.00;;;2.50;;
5587;SDS011;2816;49.778;9.986;2022-07-29T08:32:14;7.23;;;2.90;;
5587;SDS011;2816;49.778;9.986;2022-07-29T08:34:41;8.80;;;2.90;;
5587;SDS011;2816;49.778;9.986;2022-07-29T08:37:11;4.03;;;2.50;;
5587;SDS011;2816;49.778;9.986;2022-07-29T08:39:38;6.63;;;3.00;;
5587;SDS011;2816;49.778;9.986;2022-07-29T08:42:05;9.03;;;2.60;;
5587;SDS011;2816;49.778;9.986;2022-07-29T08:44:34;20.13;;;4.03;;
5587;SDS011;2816;49.778;9.986;2022-07-29T08:47:01;4.57;;;2.63;;
5587;SDS011;2816;49.778;9.986;2022-07-29T08:49:29;9.37;;;3.10;;
5587;SDS011;2816;49.778;9.986;2022-07-29T08:51:57;3.73;;;2.40;;
5587;SDS011;2816;49.778;9.986;2022-07-29T08:54:26;12.07;;;2.80;;
5587;SDS011;2816;49.778;9.986;2022-07-29T08:56:54;6.70;;;2.60;;
5587;SDS011;2816;49.778;9.986;2022-07-29T08:59:22;11.77;;;2.70;;
5587;SDS011;2816;49.778;9.986;2022-07-29T09:01:53;6.83;;;3.23;;
5587;SDS011;2816;49.778;9.986;2022-07-29T09:04:24;7.27;;;2.57;;
5587;SDS011;2816;49.778;9.986;2022-07-29T09:06:53;5.13;;;2.90;;
5587;SDS011;2816;49.778;9.986;2022-07-29T09:09:23;5.53;;;2.60;;
5587;SDS011;2816;49.778;9.986;2022-07-29T09:11:50;11.97;;;2.73;;
5587;SDS011;2816;49.778;9.986;2022-07-29T09:14:18;7.70;;;3.03;;
5587;SDS011;2816;49.778;9.986;2022-07-29T09:16:46;5.50;;;2.60;;
5587;SDS011;2816;49.778;9.986;2022-07-29T09:19:25;11.20;;;2.70;;
5587;SDS011;2816;49.778;9.986;2022-07-29T09:21:53;10.80;;;2.70;;
5587;SDS011;2816;49.778;9.986;2022-07-29T09:24:24;9.70;;;2.50;;
5587;SDS011;2816;49.778;9.986;2022-07-29T09:26:52;3.73;;;2.63;;
5587;SDS011;2816;49.778;9.986;2022-07-29T09:29:20;9.10;;;2.40;;
5587;SDS011;2816;49.778;9.986;2022-07-29T09:31:51;5.10;;;2.63;;
5587;SDS011;2816;49.778;9.986;2022-07-29T09:34:21;8.53;;;2.60;;
5587;SDS011;2816;49.778;9.986;2022-07-29T09:36:52;6.50;;;3.00;;
5587;SDS011;2816;49.778;9.986;2022-07-29T09:39:26;10.87;;;2.40;;
5587;SDS011;2816;49.778;9.986;2022-07-29T09:41:55;4.80;;;1.97;;
5587;SDS011;2816;49.778;9.986;2022-07-29T09:44:24;9.90;;;2.63;;
5587;SDS011;2816;49.778;9.986;2022-07-29T09:46:53;2.40;;;2.00;;
5587;SDS011;2816;49.778;9.986;2022-07-29T09:49:24;6.60;;;2.50;;
5587;SDS011;2816;49.778;9.986;2022-07-29T09:54:36;6.30;;;2.27;;
5587;SDS011;2816;49.778;9.986;2022-07-29T09:57:03;4.73;;;2.30;;
5587;SDS011;2816;49.778;9.986;2022-07-29T09:59:31;6.67;;;2.30;;
5587;SDS011;2816;49.778;9.986;2022-07-29T10:01:58;3.80;;;2.33;;
5587;SDS011;2816;49.778;9.986;2022-07-29T10:04:36;3.60;;;2.00;;
5587;SDS011;2816;49.778;9.986;2022-07-29T10:07:05;7.73;;;2.40;;
5587;SDS011;2816;49.778;9.986;2022-07-29T10:09:33;4.83;;;2.07;;
5587;SDS011;2816;49.778;9.986;2022-07-29T10:12:08;4.90;;;2.43;;
5587;SDS011;2816;49.778;9.986;2022-07-29T10:14:38;6.30;;;2.60;;
5587;SDS011;2816;49.778;9.986;2022-07-29T10:17:07;4.20;;;2.13;;
5587;SDS011;2816;49.778;9.986;2022-07-29T10:19:35;4.07;;;2.57;;
5587;SDS011;2816;49.778;9.986;2022-07-29T10:22:06;4.30;;;2.50;;
5587;SDS011;2816;49.778;9.986;2022-07-29T10:24:35;7.60;;;3.00;;
5587;SDS011;2816;49.778;9.986;2022-07-29T10:27:04;4.80;;;2.70;;
5587;SDS011;2816;49.778;9.986;2022-07-29T10:29:33;3.30;;;2.63;;
5587;SDS011;2816;49.778;9.986;2022-07-29T10:35:00;5.17;;;2.30;;
5587;SDS011;2816;49.778;9.986;2022-07-29T10:37:37;10.57;;;3.20;;
5587;SDS011;2816;49.778;9.986;2022-07-29T10:40:25;8.70;;;2.70;;
5587;SDS011;2816;49.778;9.986;2022-07-29T10:43:17;2.53;;;2.17;;
5587;SDS011;2816;49.778;9.986;2022-07-29T10:45:47;9.17;;;3.23;;
5587;SDS011;2816;49.778;9.986;2022-07-29T10:48:15;11.03;;;2.60;;
5587;SDS011;2816;49.778;9.986;2022-07-29T10:50:52;8.43;;;2.37;;
5587;SDS011;2816;49.778;9.986;2022-07-29T10:53:20;2.70;;;2.50;;
5587;SDS011;2816;49.778;9.986;2022-07-29T10:55:49;4.27;;;2.63;;
5587;SDS011;2816;49.778;9.986;2022-07-29T10:58:17;5.93;;;3.07;;
5587;SDS011;2816;49.778;9.986;2022-07-29T11:00:46;7.63;;;2.50;;
5587;SDS011;2816;49.778;9.986;2022-07-29T11:06:17;6.00;;;2.77;;
5587;SDS011;2816;49.778;9.986;2022-07-29T11:08:44;8.83;;;2.63;;
5587;SDS011;2816;49.778;9.986;2022-07-29T11:14:05;6.53;;;2.20;;
5587;SDS011;2816;49.778;9.986;2022-07-29T11:19:28;8.40;;;2.33;;
5587;SDS011;2816;49.778;9.986;2022-07-29T11:21:56;6.33;;;2.63;;
5587;SDS011;2816;49.778;9.986;2022-07-29T11:24:24;7.47;;;2.33;;
5587;SDS011;2816;49.778;9.986;2022-07-29T11:27:07;2.80;;;2.10;;
5587;SDS011;2816;49.778;9.986;2022-07-29T11:29:38;5.10;;;2.63;;
5587;SDS011;2816;49.778;9.986;2022-07-29T11:32:15;8.00;;;2.50;;
5587;SDS011;2816;49.778;9.986;2022-07-29T11:34:45;5.43;;;2.60;;
5587;SDS011;2816;49.778;9.986;2022-07-29T11:37:17;5.10;;;2.40;;
5587;SDS011;2816;49.778;9.986;2022-07-29T11:39:47;6.90;;;2.50;;
5587;SDS011;2816;49.778;9.986;2022-07-29T11:42:40;9.47;;;2.60;;
5587;SDS011;2816;49.778;9.986;2022-07-29T11:45:18;4.33;;;2.93;;
5587;SDS011;2816;49.778;9.986;2022-07-29T11:47:48;3.30;;;2.40;;
5587;SDS011;2816;49.778;9.986;2022-07-29T11:50:18;5.83;;;2.50;;
5587;SDS011;2816;49.778;9.986;2022-07-29T11:52:57;6.40;;;2.70;;
5587;SDS011;2816;49.778;9.986;2022-07-29T11:55:24;5.90;;;2.40;;
5587;SDS011;2816;49.778;9.986;2022-07-29T11:57:53;3.73;;;2.33;;
5587;SDS011;2816;49.778;9.986;2022-07-29T12:00:22;5.50;;;2.43;;
5587;SDS011;2816;49.778;9.986;2022-07-29T12:02:51;3.90;;;2.70;;
5587;SDS011;2816;49.778;9.986;2022-07-29T12:05:18;7.57;;;2.90;;
5587;SDS011;2816;49.778;9.986;2022-07-29T12:07:46;7.20;;;2.60;;
5587;SDS011;2816;49.778;9.986;2022-07-29T12:10:13;6.47;;;2.60;;
5587;SDS011;2816;49.778;9.986;2022-07-29T12:12:41;4.17;;;2.23;;
5587;SDS011;2816;49.778;9.986;2022-07-29T12:15:13;5.60;;;2.87;;
5587;SDS011;2816;49.778;9.986;2022-07-29T12:17:42;5.90;;;2.50;;
5587;SDS011;2816;49.778;9.986;2022-07-29T12:20:09;4.97;;;2.70;;
5587;SDS011;2816;49.778;9.986;2022-07-29T12:22:38;5.43;;;2.30;;
5587;SDS011;2816;49.778;9.986;2022-07-29T12:25:10;6.07;;;2.27;;
5587;SDS011;2816;49.778;9.986;2022-07-29T12:27:40;2.80;;;2.33;;
5587;SDS011;2816;49.778;9.986;2022-07-29T12:30:09;9.00;;;2.80;;
5587;SDS011;2816;49.778;9.986;2022-07-29T12:32:40;4.77;;;2.80;;
5587;SDS011;2816;49.778;9.986;2022-07-29T12:35:09;4.13;;;2.43;;
5587;SDS011;2816;49.778;9.986;2022-07-29T12:37:38;6.43;;;2.40;;
5587;SDS011;2816;49.778;9.986;2022-07-29T12:40:07;2.87;;;2.57;;
5587;SDS011;2816;49.778;9.986;2022-07-29T12:42:35;6.73;;;2.83;;
5587;SDS011;2816;49.778;9.986;2022-07-29T12:45:03;2.83;;;2.53;;
5587;SDS011;2816;49.778;9.986;2022-07-29T12:47:30;3.73;;;2.30;;
5587;SDS011;2816;49.778;9.986;2022-07-29T12:50:09;3.97;;;2.33;;
5587;SDS011;2816;49.778;9.986;2022-07-29T12:52:37;3.20;;;2.90;;
5587;SDS011;2816;49.778;9.986;2022-07-29T12:55:04;4.63;;;2.87;;
5587;SDS011;2816;49.778;9.986;2022-07-29T12:57:31;5.73;;;2.50;;
5587;SDS011;2816;49.778;9.986;2022-07-29T13:00:11;2.67;;;2.47;;
5587;SDS011;2816;49.778;9.986;2022-07-29T13:02:39;9.70;;;2.60;;
5587;SDS011;2816;49.778;9.986;2022-07-29T13:05:09;6.90;;;2.50;;
5587;SDS011;2816;49.778;9.986;2022-07-29T13:07:37;2.73;;;2.37;;
5587;SDS011;2816;49.778;9.986;2022-07-29T13:10:11;3.53;;;2.50;;
5587;SDS011;2816;49.778;9.986;2022-07-29T13:15:31;7.27;;;3.10;;
5587;SDS011;2816;49.778;9.986;2022-07-29T13:17:59;7.07;;;2.50;;
5587;SDS011;2816;49.778;9.986;2022-07-29T13:20:33;2.33;;;2.13;;
5587;SDS011;2816;49.778;9.986;2022-07-29T13:23:00;5.17;;;2.27;;
5587;SDS011;2816;49.778;9.986;2022-07-29T13:25:28;4.87;;;2.63;;
5587;SDS011;2816;49.778;9.986;2022-07-29T13:27:57;4.37;;;2.60;;
5587;SDS011;2816;49.778;9.986;2022-07-29T13:30:24;3.40;;;2.20;;
5587;SDS011;2816;49.778;9.986;2022-07-29T13:32:51;5.80;;;3.00;;
5587;SDS011;2816;49.778;9.986;2022-07-29T13:35:20;3.33;;;2.57;;
5587;SDS011;2816;49.778;9.986;2022-07-29T13:37:48;8.33;;;2.40;;
5587;SDS011;2816;49.778;9.986;2022-07-29T13:40:15;8.30;;;2.50;;
5587;SDS011;2816;49.778;9.986;2022-07-29T13:42:42;7.43;;;2.73;;
5587;SDS011;2816;49.778;9.986;2022-07-29T13:45:09;5.97;;;2.57;;
5587;SDS011;2816;49.778;9.986;2022-07-29T13:47:37;3.20;;;2.47;;
5587;SDS011;2816;49.778;9.986;2022-07-29T13:50:05;6.97;;;2.43;;
5587;SDS011;2816;49.778;9.986;2022-07-29T13:52:35;3.60;;;2.63;;
5587;SDS011;2816;49.778;9.986;2022-07-29T13:55:04;9.10;;;2.77;;
5587;SDS011;2816;49.778;9.986;2022-07-29T13:57:32;5.40;;;2.80;;
5587;SDS011;2816;49.778;9.986;2022-07-29T13:59:59;4.50;;;2.70;;
5587;SDS011;2816;49.778;9.986;2022-07-29T14:02:26;6.87;;;2.50;;
5587;SDS011;2816;49.778;9.986;2022-07-29T14:04:53;6.20;;;2.77;;
5587;SDS011;2816;49.778;9.986;2022-07-29T14:07:20;5.97;;;2.43;;
5587;SDS011;2816;49.778;9.986;2022-07-29T14:09:47;4.10;;;2.50;;
5587;SDS011;2816;49.778;9.986;2022-07-29T14:12:16;7.53;;;2.67;;
5587;SDS011;2816;49.778;9.986;2022-07-29T14:14:44;7.30;;;3.37;;
5587;SDS011;2816;49.778;9.986;2022-07-29T14:17:10;4.03;;;2.83;;
5587;SDS011;2816;49.778;9.986;2022-07-29T14:19:37;11.10;;;3.77;;
5587;SDS011;2816;49.778;9.986;2022-07-29T14:22:04;6.43;;;3.60;;
5587;SDS011;2816;49.778;9.986;2022-07-29T14:24:32;3.97;;;3.03;;
5587;SDS011;2816;49.778;9.986;2022-07-29T14:26:59;7.30;;;3.30;;
5587;SDS011;2816;49.778;9.986;2022-07-29T14:29:28;9.20;;;3.57;;
5587;SDS011;2816;49.778;9.986;2022-07-29T14:31:55;6.63;;;3.57;;
5587;SDS011;2816;49.778;9.986;2022-07-29T14:34:22;6.80;;;3.23;;
5587;SDS011;2816;49.778;9.986;2022-07-29T14:36:49;4.60;;;3.17;;
5587;SDS011;2816;49.778;9.986;2022-07-29T14:39:15;5.50;;;3.57;;
5587;SDS011;2816;49.778;9.986;2022-07-29T14:41:42;6.50;;;3.20;;
5587;SDS011;2816;49.778;9.986;2022-07-29T14:44:09;6.03;;;3.00;;
5587;SDS011;2816;49.778;9.986;2022-07-29T14:46:38;6.70;;;3.20;;
5587;SDS011;2816;49.778;9.986;2022-07-29T14:49:05;6.00;;;3.47;;
5587;SDS011;2816;49.778;9.986;2022-07-29T14:51:32;7.70;;;3.93;;
5587;SDS011;2816;49.778;9.986;2022-07-29T14:53:59;4.83;;;3.30;;
5587;SDS011;2816;49.778;9.986;2022-07-29T14:56:26;4.30;;;3.20;;
5587;SDS011;2816;49.778;9.986;2022-07-29T14:58:55;3.67;;;3.33;;
5587;SDS011;2816;49.778;9.986;2022-07-29T15:01:22;11.13;;;4.53;;
5587;SDS011;2816;49.778;9.986;2022-07-29T15:03:51;16.90;;;4.07;;
5587;SDS011;2816;49.778;9.986;2022-07-29T15:06:19;7.23;;;4.10;;
5587;SDS011;2816;49.778;9.986;2022-07-29T15:08:46;8.70;;;3.60;;
5587;SDS011;2816;49.778;9.986;2022-07-29T15:11:13;5.40;;;3.50;;
5587;SDS011;2816;49.778;9.986;2022-07-29T15:13:40;5.83;;;3.50;;
5587;SDS011;2816;49.778;9.986;2022-07-29T15:16:06;7.47;;;3.70;;
5587;SDS011;2816;49.778;9.986;2022-07-29T15:18:34;4.03;;;3.30;;
5587;SDS011;2816;49.778;9.986;2022-07-29T15:21:04;5.40;;;3.90;;
5587;SDS011;2816;49.778;9.986;2022-07-29T15:23:32;7.80;;;3.83;;
5587;SDS011;2816;49.778;9.986;2022-07-29T15:26:01;10.70;;;3.27;;
5587;SDS011;2816;49.778;9.986;2022-07-29T15:28:28;3.53;;;2.67;;
5587;SDS011;2816;49.778;9.986;2022-07-29T15:30:55;5.60;;;3.17;;
5587;SDS011;2816;49.778;9.986;2022-07-29T15:33:22;7.73;;;2.77;;
5587;SDS011;2816;49.778;9.986;2022-07-29T15:35:49;6.60;;;2.57;;
5587;SDS011;2816;49.778;9.986;2022-07-29T15:38:17;5.63;;;2.80;;
5587;SDS011;2816;49.778;9.986;2022-07-29T15:40:44;10.50;;;3.03;;